Time;durP1;ratioP1;P1;durP2;ratioP2;P2;SDS_P1;SDS_P2;PMS_P1;PMS_P2;Temp;Humidity;BMP_temperature;BMP_pressure;BME280_temperature;BME280_humidity;BME280_pressure;Samples;Min_cycle;Max_cycle;Signal;HPM_P1;HPM_P2
2023/06/09 00:00:18;;;;;;;0.00;0.00;;;;;;;;;;5095009;28;20039;-79
2023/06/09 00:02:45;;;;;;;0.00;0.00;;;;;;;;;;5094240;28;20399;-79
2023/06/09 00:05:11;;;;;;;0.00;0.00;;;;;;;;;;5093819;28;20109;-79
2023/06/09 00:07:37;;;;;;;0.00;0.00;;;;;;;;;;5095118;28;20115;-79
2023/06/09 00:10:06;;;;;;;0.00;0.00;;;;;;;;;;5076597;28;20052;-79
2023/06/09 00:12:32;;;;;;;0.00;0.00;;;;;;;;;;5094152;28;20475;-79
2023/06/09 00:14:58;;;;;;;0.00;0.00;;;;;;;;;;5085162;28;20075;-79
2023/06/09 00:17:25;;;;;;;0.00;0.00;;;;;;;;;;5074863;28;20032;-79
2023/06/09 00:19:52;;;;;;;0.00;0.00;;;;;;;;;;5073059;28;20463;-79
2023/06/09 00:22:19;;;;;;;0.00;0.00;;;;;;;;;;5074818;28;20040;-79
2023/06/09 00:24:46;;;;;;;0.00;0.00;;;;;;;;;;5074368;28;20056;-79
2023/06/09 00:27:12;;;;;;;0.00;0.00;;;;;;;;;;5074380;28;20037;-79
2023/06/09 00:29:38;;;;;;;0.00;0.00;;;;;;;;;;5073190;28;20123;-79
2023/06/09 00:32:05;;;;;;;0.00;0.00;;;;;;;;;;5071912;28;20573;-79
2023/06/09 00:34:31;;;;;;;0.00;0.00;;;;;;;;;;5074394;28;20091;-79
2023/06/09 00:36:57;;;;;;;0.00;0.00;;;;;;;;;;5074353;28;20044;-79
2023/06/09 00:39:23;;;;;;;0.00;0.00;;;;;;;;;;5072783;28;20040;-79
2023/06/09 00:41:49;;;;;;;0.00;0.00;;;;;;;;;;5074377;28;20076;-79
2023/06/09 00:44:16;;;;;;;0.00;0.00;;;;;;;;;;5072576;28;20040;-79
2023/06/09 00:46:43;;;;;;;0.00;0.00;;;;;;;;;;5072967;28;20059;-79
2023/06/09 00:49:09;;;;;;;0.00;0.00;;;;;;;;;;5072491;28;20056;-79
2023/06/09 00:51:36;;;;;;;0.00;0.00;;;;;;;;;;5072623;28;20040;-79
2023/06/09 00:54:03;;;;;;;0.00;0.00;;;;;;;;;;5073724;28;20053;-80
2023/06/09 00:56:31;;;;;;;0.00;0.00;;;;;;;;;;5073752;28;20349;-79
2023/06/09 00:58:58;;;;;;;0.00;0.00;;;;;;;;;;5073753;28;20040;-79
2023/06/09 01:01:24;;;;;;;0.00;0.00;;;;;;;;;;5072736;28;20059;-79
2023/06/09 01:03:50;;;;;;;0.00;0.00;;;;;;;;;;5055705;28;20472;-78
2023/06/09 01:06:26;;;;;;;0.00;0.00;;;;;;;;;;5073693;28;20043;-79
2023/06/09 01:09:00;;;;;;;0.00;0.00;;;;;;;;;;5072367;28;20513;-79
2023/06/09 01:11:30;;;;;;;0.00;0.00;;;;;;;;;;5072212;28;20405;-79
2023/06/09 01:13:56;;;;;;;0.00;0.00;;;;;;;;;;5073787;28;20044;-79
2023/06/09 01:16:37;;;;;;;0.00;0.00;;;;;;;;;;5091690;28;20044;-79
2023/06/09 01:19:08;;;;;;;0.00;0.00;;;;;;;;;;5092181;28;20040;-79
2023/06/09 01:21:45;;;;;;;0.00;0.00;;;;;;;;;;5075442;28;20044;-79
2023/06/09 01:24:30;;;;;;;0.00;0.00;;;;;;;;;;5093265;28;20565;-79
2023/06/09 01:26:58;;;;;;;0.00;0.00;;;;;;;;;;5075368;28;20035;-79
2023/06/09 01:29:25;;;;;;;0.00;0.00;;;;;;;;;;5091763;28;20036;-79
2023/06/09 01:31:52;;;;;;;0.00;0.00;;;;;;;;;;5092339;28;20063;-79
2023/06/09 01:34:18;;;;;;;0.00;0.00;;;;;;;;;;5092055;28;20138;-80
2023/06/09 01:36:45;;;;;;;0.00;0.00;;;;;;;;;;5092122;28;20079;-83
2023/06/09 01:39:11;;;;;;;0.00;0.00;;;;;;;;;;5092074;28;20047;-80
2023/06/09 01:41:37;;;;;;;0.00;0.00;;;;;;;;;;5093269;28;20032;-79
2023/06/09 01:44:03;;;;;;;0.00;0.00;;;;;;;;;;5091803;28;20054;-78
2023/06/09 01:46:29;;;;;;;0.00;0.00;;;;;;;;;;5091643;28;20040;-79
2023/06/09 01:48:56;;;;;;;0.00;0.00;;;;;;;;;;5091674;28;20044;-79
2023/06/09 01:51:38;;;;;;;0.00;0.00;;;;;;;;;;5092946;28;20040;-79
2023/06/09 01:54:10;;;;;;;0.00;0.00;;;;;;;;;;5091591;28;20054;-79
2023/06/09 01:56:45;;;;;;;0.43;0.10;;;;;;;;;;5091108;28;20056;-79
2023/06/09 01:59:18;;;;;;;0.00;0.00;;;;;;;;;;5091684;28;20101;-79
2023/06/09 02:01:45;;;;;;;0.00;0.00;;;;;;;;;;5092585;28;20418;-79
2023/06/09 02:04:12;;;;;;;0.00;0.00;;;;;;;;;;5091512;28;20047;-79
2023/06/09 02:06:38;;;;;;;0.00;0.00;;;;;;;;;;5091482;28;20109;-79
2023/06/09 02:09:04;;;;;;;0.00;0.00;;;;;;;;;;5091659;28;20498;-79
2023/06/09 02:11:30;;;;;;;0.00;0.00;;;;;;;;;;5091162;28;20501;-79
2023/06/09 02:13:56;;;;;;;0.00;0.00;;;;;;;;;;5092855;28;20119;-79
2023/06/09 02:16:24;;;;;;;0.00;0.00;;;;;;;;;;5071614;28;20089;-79
2023/06/09 02:18:50;;;;;;;0.00;0.00;;;;;;;;;;5054470;28;20364;-79
2023/06/09 02:21:16;;;;;;;0.00;0.00;;;;;;;;;;5070767;28;20048;-79
2023/06/09 02:23:42;;;;;;;0.00;0.00;;;;;;;;;;5071118;28;20041;-78
2023/06/09 02:26:08;;;;;;;0.00;0.00;;;;;;;;;;5072355;28;20047;-79
2023/06/09 02:28:34;;;;;;;0.00;0.00;;;;;;;;;;5072436;28;20072;-79
2023/06/09 02:31:00;;;;;;;0.00;0.00;;;;;;;;;;5070681;28;20409;-79
2023/06/09 02:33:26;;;;;;;0.00;0.00;;;;;;;;;;5071322;28;20074;-80
2023/06/09 02:35:53;;;;;;;0.00;0.00;;;;;;;;;;5070696;28;20045;-79
2023/06/09 02:38:21;;;;;;;0.00;0.00;;;;;;;;;;5071123;28;20121;-79
2023/06/09 02:40:47;;;;;;;0.00;0.00;;;;;;;;;;5070875;28;20040;-79
2023/06/09 02:43:13;;;;;;;0.00;0.00;;;;;;;;;;5071063;28;20514;-79
2023/06/09 02:45:40;;;;;;;0.00;0.00;;;;;;;;;;5070723;28;20119;-79
2023/06/09 02:48:06;;;;;;;0.00;0.00;;;;;;;;;;5072160;28;20190;-79
2023/06/09 02:50:32;;;;;;;0.00;0.00;;;;;;;;;;5070487;28;20052;-79
2023/06/09 02:52:58;;;;;;;0.00;0.00;;;;;;;;;;5070781;28;20056;-78
2023/06/09 02:55:24;;;;;;;0.00;0.00;;;;;;;;;;5072222;28;20143;-79
2023/06/09 02:57:50;;;;;;;0.00;0.00;;;;;;;;;;5074803;28;20048;-79
2023/06/09 03:00:17;;;;;;;0.00;0.00;;;;;;;;;;5074373;28;20045;-79
2023/06/09 03:02:45;;;;;;;0.35;0.25;;;;;;;;;;5074671;28;20040;-79
2023/06/09 03:05:11;;;;;;;0.00;0.00;;;;;;;;;;5074619;28;20075;-80
2023/06/09 03:07:37;;;;;;;0.00;0.00;;;;;;;;;;5075912;28;20139;-79
2023/06/09 03:10:05;;;;;;;0.00;0.00;;;;;;;;;;5074857;28;20079;-79
2023/06/09 03:12:31;;;;;;;0.00;0.00;;;;;;;;;;5075660;28;20352;-80
2023/06/09 03:14:57;;;;;;;0.00;0.00;;;;;;;;;;5083624;28;20043;-79
2023/06/09 03:17:24;;;;;;;0.00;0.00;;;;;;;;;;5094492;28;20387;-79
2023/06/09 03:19:51;;;;;;;0.00;0.00;;;;;;;;;;5094606;28;20093;-79
2023/06/09 03:22:17;;;;;;;0.00;0.00;;;;;;;;;;5095870;28;20089;-79
2023/06/09 03:24:44;;;;;;;0.00;0.00;;;;;;;;;;5096400;28;20040;-80
2023/06/09 03:27:10;;;;;;;0.00;0.00;;;;;;;;;;5094296;28;20574;-79
2023/06/09 03:29:36;;;;;;;0.00;0.00;;;;;;;;;;5094423;28;20088;-79
2023/06/09 03:32:03;;;;;;;0.00;0.00;;;;;;;;;;5095720;28;20047;-80
2023/06/09 03:34:29;;;;;;;0.00;0.00;;;;;;;;;;5077751;28;20490;-79
2023/06/09 03:36:55;;;;;;;0.00;0.00;;;;;;;;;;5094178;28;20032;-79
2023/06/09 03:39:22;;;;;;;0.00;0.00;;;;;;;;;;5094133;28;20448;-79
2023/06/09 03:41:48;;;;;;;0.00;0.00;;;;;;;;;;5094214;28;20074;-79
2023/06/09 03:44:14;;;;;;;0.00;0.00;;;;;;;;;;5094512;28;20040;-79
2023/06/09 03:46:40;;;;;;;0.00;0.00;;;;;;;;;;5093965;28;20487;-79
2023/06/09 03:49:06;;;;;;;0.00;0.00;;;;;;;;;;5094167;28;20083;-79
2023/06/09 03:51:32;;;;;;;0.00;0.00;;;;;;;;;;5094203;28;20050;-79
2023/06/09 03:53:58;;;;;;;0.00;0.00;;;;;;;;;;5095369;28;20085;-80
2023/06/09 03:56:25;;;;;;;0.00;0.00;;;;;;;;;;5093769;28;20121;-79
2023/06/09 03:58:50;;;;;;;0.00;0.00;;;;;;;;;;5093895;28;20044;-79
2023/06/09 04:01:17;;;;;;;0.00;0.00;;;;;;;;;;5093640;28;20119;-79
2023/06/09 04:03:43;;;;;;;0.00;0.00;;;;;;;;;;5095382;28;20039;-79
2023/06/09 04:06:09;;;;;;;0.00;0.00;;;;;;;;;;5093732;28;20035;-79
2023/06/09 04:08:36;;;;;;;0.00;0.00;;;;;;;;;;5095223;28;20040;-79
2023/06/09 04:11:02;;;;;;;0.00;0.00;;;;;;;;;;5093544;28;20036;-79
2023/06/09 04:13:28;;;;;;;0.00;0.00;;;;;;;;;;5094044;28;20082;-79
2023/06/09 04:15:54;;;;;;;0.00;0.00;;;;;;;;;;5079087;28;20106;-79
2023/06/09 04:18:20;;;;;;;0.00;0.00;;;;;;;;;;5073542;28;20456;-79
2023/06/09 04:20:46;;;;;;;0.00;0.00;;;;;;;;;;5073241;28;20450;-80
2023/06/09 04:23:12;;;;;;;0.00;0.00;;;;;;;;;;5073184;28;20041;-79
2023/06/09 04:25:39;;;;;;;0.00;0.00;;;;;;;;;;5073502;28;20044;-80
2023/06/09 04:28:05;;;;;;;0.00;0.00;;;;;;;;;;5073175;28;20045;-79
2023/06/09 04:30:34;;;;;;;0.00;0.00;;;;;;;;;;5073203;28;20037;-79
2023/06/09 04:33:00;;;;;;;0.00;0.00;;;;;;;;;;5073053;28;20067;-79
2023/06/09 04:35:26;;;;;;;0.00;0.00;;;;;;;;;;5074636;28;20075;-79
2023/06/09 04:37:52;;;;;;;0.00;0.00;;;;;;;;;;5073037;28;20052;-78
2023/06/09 04:40:21;;;;;;;0.00;0.00;;;;;;;;;;5074445;28;20053;-79
2023/06/09 04:42:51;;;;;;;0.00;0.00;;;;;;;;;;5074212;28;20045;-79
2023/06/09 04:45:17;;;;;;;0.00;0.00;;;;;;;;;;5057083;28;20036;-79
2023/06/09 04:47:43;;;;;;;0.00;0.00;;;;;;;;;;5073253;28;20075;-79
2023/06/09 04:50:10;;;;;;;0.00;0.00;;;;;;;;;;5074535;28;20072;-80
2023/06/09 04:52:39;;;;;;;0.00;0.00;;;;;;;;;;5074470;28;20094;-79
2023/06/09 04:55:05;;;;;;;0.00;0.00;;;;;;;;;;5072859;28;20060;-79
2023/06/09 04:57:31;;;;;;;0.00;0.00;;;;;;;;;;5072826;28;20060;-79
2023/06/09 05:00:03;;;;;;;0.00;0.00;;;;;;;;;;5072776;28;20044;-80
2023/06/09 05:02:30;;;;;;;0.00;0.00;;;;;;;;;;5072937;28;20107;-79
2023/06/09 05:04:56;;;;;;;0.00;0.00;;;;;;;;;;5074124;28;20463;-80
2023/06/09 05:07:22;;;;;;;0.00;0.00;;;;;;;;;;5073979;28;20044;-80
2023/06/09 05:09:48;;;;;;;0.00;0.00;;;;;;;;;;5072473;28;20049;-79
2023/06/09 05:12:14;;;;;;;0.00;0.00;;;;;;;;;;5072274;28;20055;-79
2023/06/09 05:14:42;;;;;;;0.00;0.00;;;;;;;;;;5077775;28;20119;-80
2023/06/09 05:17:08;;;;;;;0.00;0.00;;;;;;;;;;5093401;28;20479;-80
2023/06/09 05:19:34;;;;;;;0.00;0.00;;;;;;;;;;5092238;28;20050;-79
2023/06/09 05:22:01;;;;;;;0.00;0.00;;;;;;;;;;5092619;28;20059;-79
2023/06/09 05:24:27;;;;;;;0.00;0.00;;;;;;;;;;5093987;28;20090;-79
2023/06/09 05:26:53;;;;;;;0.00;0.00;;;;;;;;;;5092392;28;20487;-79
2023/06/09 05:29:19;;;;;;;0.00;0.00;;;;;;;;;;5092539;28;20043;-80
2023/06/09 05:31:44;;;;;;;0.00;0.00;;;;;;;;;;5092569;28;20537;-80
2023/06/09 05:34:10;;;;;;;0.00;0.00;;;;;;;;;;5092973;28;20048;-79
2023/06/09 05:36:37;;;;;;;0.00;0.00;;;;;;;;;;5093996;28;20119;-78
2023/06/09 05:39:03;;;;;;;0.00;0.00;;;;;;;;;;5093978;28;20047;-79
2023/06/09 05:41:29;;;;;;;0.00;0.00;;;;;;;;;;5092875;28;20036;-79
2023/06/09 05:43:57;;;;;;;0.00;0.00;;;;;;;;;;5092211;28;20040;-79
2023/06/09 05:46:23;;;;;;;0.00;0.00;;;;;;;;;;5075558;28;20164;-79
2023/06/09 05:48:50;;;;;;;0.10;0.00;;;;;;;;;;5093669;28;20032;-79
2023/06/09 05:51:17;;;;;;;0.00;0.00;;;;;;;;;;5092546;28;20047;-79
2023/06/09 05:53:43;;;;;;;0.00;0.00;;;;;;;;;;5092348;28;20044;-79
2023/06/09 05:56:09;;;;;;;0.00;0.00;;;;;;;;;;5093275;28;20127;-79
2023/06/09 05:58:35;;;;;;;0.00;0.00;;;;;;;;;;5091961;28;20040;-79
2023/06/09 06:01:02;;;;;;;0.00;0.00;;;;;;;;;;5093480;28;20038;-80
2023/06/09 06:03:28;;;;;;;0.00;0.00;;;;;;;;;;5092094;28;20119;-78
2023/06/09 06:05:54;;;;;;;0.00;0.00;;;;;;;;;;5093532;28;20455;-79
2023/06/09 06:08:20;;;;;;;0.32;0.10;;;;;;;;;;5091866;28;20048;-79
2023/06/09 06:10:46;;;;;;;0.00;0.00;;;;;;;;;;5093271;28;20042;-79
2023/06/09 06:13:13;;;;;;;0.00;0.00;;;;;;;;;;5093259;28;20067;-79
2023/06/09 06:15:39;;;;;;;0.00;0.00;;;;;;;;;;5079474;28;20044;-79
2023/06/09 06:18:05;;;;;;;0.00;0.00;;;;;;;;;;5071503;28;20048;-79
2023/06/09 06:20:31;;;;;;;0.00;0.00;;;;;;;;;;5072644;28;20123;-79
2023/06/09 06:22:57;;;;;;;0.00;0.00;;;;;;;;;;5072897;28;20036;-83
2023/06/09 06:25:23;;;;;;;0.00;0.00;;;;;;;;;;5071500;28;20032;-81
2023/06/09 06:27:49;;;;;;;0.00;0.00;;;;;;;;;;5072805;28;20036;-80
2023/06/09 06:30:15;;;;;;;0.00;0.00;;;;;;;;;;5070555;28;20040;-79
2023/06/09 06:32:51;;;;;;;0.00;0.00;;;;;;;;;;5071291;28;20044;-79
2023/06/09 06:35:27;;;;;;;0.00;0.00;;;;;;;;;;5071661;28;20041;-79
2023/06/09 06:37:53;;;;;;;0.00;0.00;;;;;;;;;;5071117;28;20517;-79
2023/06/09 06:40:20;;;;;;;0.00;0.00;;;;;;;;;;5072581;28;20040;-79
2023/06/09 06:42:46;;;;;;;0.00;0.00;;;;;;;;;;5072381;28;20558;-83
2023/06/09 06:45:12;;;;;;;0.00;0.00;;;;;;;;;;5072700;28;20079;-79
2023/06/09 06:47:38;;;;;;;0.00;0.00;;;;;;;;;;5070966;28;20040;-79
2023/06/09 06:50:04;;;;;;;0.00;0.00;;;;;;;;;;5071268;28;20044;-82
2023/06/09 06:52:31;;;;;;;0.00;0.00;;;;;;;;;;5071363;28;20185;-82
2023/06/09 06:54:58;;;;;;;0.00;0.00;;;;;;;;;;5071112;28;20094;-82
2023/06/09 06:57:24;;;;;;;0.15;0.00;;;;;;;;;;5054577;28;20058;-83
2023/06/09 06:59:50;;;;;;;0.20;0.10;;;;;;;;;;5071014;28;20116;-79
2023/06/09 07:02:16;;;;;;;0.00;0.00;;;;;;;;;;5072762;28;20116;-79
2023/06/09 07:04:42;;;;;;;0.03;0.03;;;;;;;;;;5070842;28;20040;-80
2023/06/09 07:07:11;;;;;;;0.00;0.00;;;;;;;;;;5071362;28;20044;-79
2023/06/09 07:09:37;;;;;;;0.00;0.00;;;;;;;;;;5072225;28;20045;-79
2023/06/09 07:12:04;;;;;;;0.00;0.00;;;;;;;;;;5071192;28;20086;-80
2023/06/09 07:14:34;;;;;;;0.00;0.00;;;;;;;;;;5076271;28;20047;-79
2023/06/09 07:17:00;;;;;;;0.00;0.00;;;;;;;;;;5091623;28;20040;-79
2023/06/09 07:19:26;;;;;;;0.00;0.00;;;;;;;;;;5090710;28;20509;-79
2023/06/09 07:21:52;;;;;;;0.00;0.00;;;;;;;;;;5091083;28;20032;-78
2023/06/09 07:24:18;;;;;;;0.00;0.00;;;;;;;;;;5092380;28;20036;-79
2023/06/09 07:26:45;;;;;;;0.00;0.00;;;;;;;;;;5091316;28;20084;-79
2023/06/09 07:29:11;;;;;;;0.00;0.00;;;;;;;;;;5090719;28;20055;-79
2023/06/09 07:31:37;;;;;;;0.00;0.00;;;;;;;;;;5092553;28;20043;-79
2023/06/09 07:34:03;;;;;;;0.00;0.00;;;;;;;;;;5090893;28;20040;-79
2023/06/09 07:36:29;;;;;;;0.00;0.00;;;;;;;;;;5092557;28;20085;-79
2023/06/09 07:38:55;;;;;;;0.00;0.00;;;;;;;;;;5090876;28;20047;-84
2023/06/09 07:41:22;;;;;;;0.00;0.00;;;;;;;;;;5092643;28;20420;-80
2023/06/09 07:43:48;;;;;;;0.00;0.00;;;;;;;;;;5094574;28;20047;-80
2023/06/09 07:46:14;;;;;;;0.00;0.00;;;;;;;;;;5077873;28;20036;-80
2023/06/09 07:48:42;;;;;;;0.00;0.00;;;;;;;;;;5095569;28;20044;-80
2023/06/09 07:51:08;;;;;;;0.00;0.00;;;;;;;;;;5094571;28;20126;-79
2023/06/09 07:53:36;;;;;;;0.00;0.00;;;;;;;;;;5095870;28;20372;-80
2023/06/09 07:56:02;;;;;;;0.00;0.00;;;;;;;;;;5077609;28;20079;-79
2023/06/09 07:58:28;;;;;;;0.00;0.00;;;;;;;;;;5095725;28;20132;-80
2023/06/09 08:00:55;;;;;;;0.00;0.00;;;;;;;;;;5094256;28;20211;-80
2023/06/09 08:03:21;;;;;;;0.00;0.00;;;;;;;;;;5095836;28;20047;-79
2023/06/09 08:05:47;;;;;;;0.00;0.00;;;;;;;;;;5094546;28;20036;-79
2023/06/09 08:08:13;;;;;;;0.00;0.00;;;;;;;;;;5094137;28;20035;-80
2023/06/09 08:10:39;;;;;;;0.00;0.00;;;;;;;;;;5094378;28;20040;-80
2023/06/09 08:13:05;;;;;;;0.00;0.00;;;;;;;;;;5095801;28;20047;-79
2023/06/09 08:15:32;;;;;;;0.00;0.00;;;;;;;;;;5081450;28;20487;-80
2023/06/09 08:17:58;;;;;;;0.00;0.00;;;;;;;;;;5073874;28;20503;-79
2023/06/09 08:20:24;;;;;;;0.00;0.00;;;;;;;;;;5056644;28;20080;-79
2023/06/09 08:22:50;;;;;;;0.00;0.00;;;;;;;;;;5074932;28;20067;-79
2023/06/09 08:25:16;;;;;;;0.00;0.00;;;;;;;;;;5074868;28;20032;-80
2023/06/09 08:27:42;;;;;;;0.00;0.00;;;;;;;;;;5075082;28;20119;-79
2023/06/09 08:30:08;;;;;;;0.00;0.00;;;;;;;;;;5073267;28;20135;-79
2023/06/09 08:32:36;;;;;;;0.00;0.00;;;;;;;;;;5073590;28;20048;-79
2023/06/09 08:35:06;;;;;;;0.00;0.00;;;;;;;;;;5073518;28;20037;-79
2023/06/09 08:37:32;;;;;;;0.00;0.00;;;;;;;;;;5073505;28;20079;-85
2023/06/09 08:40:00;;;;;;;0.00;0.00;;;;;;;;;;5073129;28;20047;-79
2023/06/09 08:42:27;;;;;;;0.00;0.00;;;;;;;;;;5073321;28;20093;-80
2023/06/09 08:44:59;;;;;;;0.00;0.00;;;;;;;;;;5073328;28;20047;-79
2023/06/09 08:47:26;;;;;;;0.00;0.00;;;;;;;;;;5074387;28;20418;-79
2023/06/09 08:49:57;;;;;;;0.00;0.00;;;;;;;;;;5075897;28;20048;-79
2023/06/09 08:52:23;;;;;;;0.00;0.00;;;;;;;;;;5073540;28;20369;-79
2023/06/09 08:54:50;;;;;;;0.00;0.00;;;;;;;;;;5074235;28;20446;-79
2023/06/09 08:57:16;;;;;;;0.00;0.00;;;;;;;;;;5073229;28;20059;-80
2023/06/09 08:59:44;;;;;;;0.10;0.00;;;;;;;;;;5056374;28;20115;-79
2023/06/09 09:02:11;;;;;;;0.00;0.00;;;;;;;;;;5056495;28;20040;-78
2023/06/09 09:04:40;;;;;;;0.00;0.00;;;;;;;;;;5074134;28;20048;-79
2023/06/09 09:07:13;;;;;;;0.00;0.00;;;;;;;;;;5073267;28;20041;-79
2023/06/09 09:09:39;;;;;;;0.00;0.00;;;;;;;;;;5072553;28;20036;-79
2023/06/09 09:12:07;;;;;;;0.05;0.00;;;;;;;;;;5074313;28;20048;-79
2023/06/09 09:14:33;;;;;;;0.00;0.00;;;;;;;;;;5072965;28;20033;-79
2023/06/09 09:16:59;;;;;;;0.00;0.00;;;;;;;;;;5074071;28;20082;-79
2023/06/09 09:19:26;;;;;;;0.00;0.00;;;;;;;;;;5072382;28;20048;-79
2023/06/09 09:21:53;;;;;;;0.00;0.00;;;;;;;;;;5072822;28;20437;-79
2023/06/09 09:24:19;;;;;;;0.00;0.00;;;;;;;;;;5073576;28;20045;-79
2023/06/09 09:26:45;;;;;;;0.00;0.00;;;;;;;;;;5073810;28;20376;-79
2023/06/09 09:29:11;;;;;;;0.00;0.00;;;;;;;;;;5073448;28;20047;-79
2023/06/09 09:31:41;;;;;;;0.00;0.00;;;;;;;;;;5072609;28;20399;-79
2023/06/09 09:34:13;;;;;;;0.00;0.00;;;;;;;;;;5072711;28;20151;-80
2023/06/09 09:36:43;;;;;;;0.00;0.00;;;;;;;;;;5072545;28;20119;-79
2023/06/09 09:39:09;;;;;;;0.10;0.00;;;;;;;;;;5072084;28;20045;-79
2023/06/09 09:41:35;;;;;;;0.00;0.00;;;;;;;;;;5072535;28;20041;-79
2023/06/09 09:44:01;;;;;;;0.00;0.00;;;;;;;;;;5073809;28;20090;-79
2023/06/09 09:46:35;;;;;;;0.00;0.00;;;;;;;;;;5072370;28;20048;-79
2023/06/09 09:49:01;;;;;;;0.00;0.00;;;;;;;;;;5073597;28;20037;-80
2023/06/09 09:51:28;;;;;;;0.00;0.00;;;;;;;;;;5071905;28;20044;-80
2023/06/09 09:53:58;;;;;;;0.00;0.00;;;;;;;;;;5073583;28;20094;-79
2023/06/09 09:56:25;;;;;;;0.00;0.00;;;;;;;;;;5055063;28;20048;-79
2023/06/09 09:58:53;;;;;;;0.00;0.00;;;;;;;;;;5071921;28;20045;-80
2023/06/09 10:01:23;;;;;;;0.52;0.00;;;;;;;;;;5071996;28;20396;-79
2023/06/09 10:03:49;;;;;;;0.00;0.00;;;;;;;;;;5072948;28;20036;-78
2023/06/09 10:06:16;;;;;;;0.00;0.00;;;;;;;;;;5072944;28;20028;-79
2023/06/09 10:08:42;;;;;;;0.00;0.00;;;;;;;;;;5073345;28;20039;-78
2023/06/09 10:11:09;;;;;;;0.00;0.00;;;;;;;;;;5072782;28;20506;-78
2023/06/09 10:13:35;;;;;;;0.00;0.00;;;;;;;;;;5055206;28;20075;-78
2023/06/09 10:16:01;;;;;;;0.00;0.00;;;;;;;;;;5072533;28;20044;-78
2023/06/09 10:18:27;;;;;;;0.00;0.00;;;;;;;;;;5073025;28;20182;-78
2023/06/09 10:20:54;;;;;;;0.00;0.00;;;;;;;;;;5071713;28;20045;-78
2023/06/09 10:23:21;;;;;;;0.00;0.00;;;;;;;;;;5080671;28;20395;-78
2023/06/09 10:25:48;;;;;;;0.00;0.00;;;;;;;;;;5091649;28;20040;-79
2023/06/09 10:28:16;;;;;;;0.00;0.00;;;;;;;;;;5092246;28;20110;-78
2023/06/09 10:30:42;;;;;;;0.00;0.00;;;;;;;;;;5092718;28;20127;-78
2023/06/09 10:33:19;;;;;;;0.00;0.00;;;;;;;;;;5075118;28;20076;-78
2023/06/09 10:35:47;;;;;;;0.00;0.00;;;;;;;;;;5091536;28;20039;-78
2023/06/09 10:38:30;;;;;;;0.00;0.00;;;;;;;;;;5093219;28;20040;-79
2023/06/09 10:41:16;;;;;;;0.00;0.00;;;;;;;;;;5091703;28;20119;-79
2023/06/09 10:43:42;;;;;;;0.00;0.00;;;;;;;;;;5092132;28;20055;-79
2023/06/09 10:46:12;;;;;;;0.00;0.00;;;;;;;;;;5075578;28;20117;-78
2023/06/09 10:48:46;;;;;;;0.00;0.00;;;;;;;;;;5071289;28;20119;-78
2023/06/09 10:51:27;;;;;;;0.10;0.05;;;;;;;;;;5072511;28;20116;-79
2023/06/09 10:54:22;;;;;;;0.00;0.00;;;;;;;;;;5082295;28;20046;-79
2023/06/09 10:56:53;;;;;;;0.00;0.00;;;;;;;;;;5086964;28;20123;-78
2023/06/09 10:59:25;;;;;;;0.00;0.00;;;;;;;;;;5092897;28;20139;-78
2023/06/09 11:02:03;;;;;;;0.00;0.00;;;;;;;;;;5092727;28;20040;-79
2023/06/09 11:04:44;;;;;;;0.15;0.00;;;;;;;;;;5091566;28;20083;-78
2023/06/09 11:07:15;;;;;;;0.00;0.00;;;;;;;;;;5091315;28;20480;-78
2023/06/09 11:09:47;;;;;;;0.00;0.00;;;;;;;;;;5091140;28;20040;-79
2023/06/09 11:12:22;;;;;;;0.00;0.00;;;;;;;;;;5092629;28;20102;-78
2023/06/09 11:14:48;;;;;;;;;;;;;;;;;;5093110;28;20434;-78
2023/06/09 11:17:27;;;;;;;0.00;0.00;;;;;;;;;;5095633;28;19920;-78
2023/06/09 11:20:11;;;;;;;0.03;0.00;;;;;;;;;;5078616;28;20102;-78
2023/06/09 11:22:49;;;;;;;0.00;0.00;;;;;;;;;;5096689;28;20043;-78
2023/06/09 11:25:15;;;;;;;0.20;0.03;;;;;;;;;;5094945;28;20044;-78
2023/06/09 11:27:42;;;;;;;0.00;0.00;;;;;;;;;;5096647;28;20036;-78
2023/06/09 11:30:08;;;;;;;0.00;0.00;;;;;;;;;;5089978;28;20075;-77
2023/06/09 11:32:46;;;;;;;0.00;0.00;;;;;;;;;;5074919;28;20080;-78
2023/06/09 11:35:30;;;;;;;0.00;0.00;;;;;;;;;;5075731;28;20549;-78
2023/06/09 11:37:57;;;;;;;0.00;0.00;;;;;;;;;;5076309;28;20212;-79
2023/06/09 11:40:27;;;;;;;0.00;0.00;;;;;;;;;;5074346;28;20052;-78
2023/06/09 11:42:53;;;;;;;0.00;0.00;;;;;;;;;;5074628;28;20082;-78
2023/06/09 11:45:19;;;;;;;0.00;0.00;;;;;;;;;;5074218;28;20140;-78
2023/06/09 11:47:46;;;;;;;0.00;0.00;;;;;;;;;;5074428;28;20093;-78
2023/06/09 11:50:12;;;;;;;0.00;0.00;;;;;;;;;;5057576;28;20045;-78
2023/06/09 11:52:42;;;;;;;0.00;0.00;;;;;;;;;;5074448;28;20044;-78
2023/06/09 11:55:12;;;;;;;0.00;0.00;;;;;;;;;;5075516;28;20098;-78
2023/06/09 11:57:39;;;;;;;0.00;0.00;;;;;;;;;;5074185;28;20480;-78
2023/06/09 12:00:15;;;;;;;0.00;0.00;;;;;;;;;;5075536;28;20047;-78
2023/06/09 12:02:45;;;;;;;0.00;0.00;;;;;;;;;;5074289;28;20052;-78
2023/06/09 12:05:14;;;;;;;0.00;0.00;;;;;;;;;;5074419;28;20075;-78
2023/06/09 12:07:44;;;;;;;0.00;0.00;;;;;;;;;;5073941;28;20524;-78
2023/06/09 12:10:11;;;;;;;0.00;0.00;;;;;;;;;;5075406;28;20124;-78
2023/06/09 12:12:50;;;;;;;0.00;0.00;;;;;;;;;;5075360;28;20047;-78
2023/06/09 12:15:17;;;;;;;0.00;0.00;;;;;;;;;;5074137;28;20067;-79
2023/06/09 12:17:43;;;;;;;0.00;0.00;;;;;;;;;;5073987;28;20502;-79
2023/06/09 12:20:22;;;;;;;0.00;0.00;;;;;;;;;;5073735;28;20048;-78
2023/06/09 12:22:53;;;;;;;0.00;0.00;;;;;;;;;;5073731;28;20425;-78
2023/06/09 12:25:20;;;;;;;0.20;0.10;;;;;;;;;;5075116;28;20040;-79
2023/06/09 12:27:46;;;;;;;0.00;0.00;;;;;;;;;;5073343;28;20049;-79
2023/06/09 12:30:31;;;;;;;0.00;0.00;;;;;;;;;;5073725;28;20044;-79
2023/06/09 12:32:57;;;;;;;0.00;0.00;;;;;;;;;;5073370;28;20071;-78
2023/06/09 12:35:24;;;;;;;0.00;0.00;;;;;;;;;;5073662;28;20055;-78
2023/06/09 12:37:50;;;;;;;0.00;0.00;;;;;;;;;;5074893;28;20102;-78
2023/06/09 12:40:16;;;;;;;0.00;0.00;;;;;;;;;;5073255;28;20368;-78
2023/06/09 12:42:46;;;;;;;0.00;0.00;;;;;;;;;;5073142;28;20048;-79
2023/06/09 12:45:14;;;;;;;0.00;0.00;;;;;;;;;;5073341;28;20119;-78
2023/06/09 12:47:47;;;;;;;0.00;0.00;;;;;;;;;;5074324;28;20442;-79
2023/06/09 12:50:13;;;;;;;0.00;0.00;;;;;;;;;;5074390;28;20047;-78
2023/06/09 12:52:39;;;;;;;0.20;0.20;;;;;;;;;;5073018;28;20049;-79
2023/06/09 12:55:06;;;;;;;0.00;0.00;;;;;;;;;;5072928;28;20054;-80
2023/06/09 12:57:31;;;;;;;0.00;0.00;;;;;;;;;;5072879;28;20048;-79
2023/06/09 13:00:01;;;;;;;0.00;0.00;;;;;;;;;;5072886;28;20048;-79
2023/06/09 13:02:27;;;;;;;0.00;0.00;;;;;;;;;;5074128;28;20052;-78
2023/06/09 13:04:53;;;;;;;0.00;0.00;;;;;;;;;;5072973;28;20045;-79
2023/06/09 13:07:19;;;;;;;0.00;0.00;;;;;;;;;;5073888;28;20051;-79
2023/06/09 13:09:45;;;;;;;0.00;0.00;;;;;;;;;;5072801;28;20105;-79
2023/06/09 13:12:11;;;;;;;0.20;0.00;;;;;;;;;;5072779;28;20053;-79
2023/06/09 13:14:39;;;;;;;0.00;0.00;;;;;;;;;;5072851;28;20048;-79
2023/06/09 13:17:05;;;;;;;0.00;0.00;;;;;;;;;;5072727;28;20048;-80
2023/06/09 13:19:31;;;;;;;0.00;0.00;;;;;;;;;;5073141;28;20127;-80
2023/06/09 13:21:57;;;;;;;0.00;0.00;;;;;;;;;;5073179;28;20048;-80
2023/06/09 13:24:23;;;;;;;0.00;0.00;;;;;;;;;;5073156;28;20036;-79
2023/06/09 13:26:49;;;;;;;0.00;0.00;;;;;;;;;;5072142;28;20119;-79
2023/06/09 13:29:15;;;;;;;0.00;0.00;;;;;;;;;;5055603;28;20044;-80
2023/06/09 13:31:41;;;;;;;0.00;0.00;;;;;;;;;;5073555;28;20109;-80
2023/06/09 13:34:07;;;;;;;0.00;0.00;;;;;;;;;;5072449;28;20040;-80
2023/06/09 13:36:33;;;;;;;0.25;0.08;;;;;;;;;;5072281;28;20585;-80
2023/06/09 13:38:59;;;;;;;0.00;0.00;;;;;;;;;;5071899;28;20079;-80
2023/06/09 13:41:27;;;;;;;0.00;0.00;;;;;;;;;;5072093;28;20173;-80
2023/06/09 13:43:53;;;;;;;0.00;0.00;;;;;;;;;;5073633;28;20532;-80
2023/06/09 13:46:19;;;;;;;0.00;0.00;;;;;;;;;;5072073;28;20540;-80
2023/06/09 13:48:45;;;;;;;0.10;0.00;;;;;;;;;;5071639;28;20040;-80
2023/06/09 13:51:11;;;;;;;0.00;0.00;;;;;;;;;;5072882;28;20040;-80
2023/06/09 13:53:39;;;;;;;0.00;0.00;;;;;;;;;;5072980;28;20554;-80
2023/06/09 13:56:05;;;;;;;0.00;0.00;;;;;;;;;;5071683;28;20059;-79
2023/06/09 13:58:32;;;;;;;0.00;0.00;;;;;;;;;;5071430;28;20060;-80
2023/06/09 14:00:58;;;;;;;0.00;0.00;;;;;;;;;;5072026;28;20391;-80
2023/06/09 14:03:26;;;;;;;0.00;0.00;;;;;;;;;;5071372;28;20052;-81
2023/06/09 14:05:52;;;;;;;0.00;0.00;;;;;;;;;;5071491;28;20467;-80
2023/06/09 14:08:18;;;;;;;0.00;0.00;;;;;;;;;;5071698;28;20090;-80
2023/06/09 14:10:44;;;;;;;0.00;0.00;;;;;;;;;;5072847;28;20036;-80
2023/06/09 14:13:10;;;;;;;0.00;0.00;;;;;;;;;;5072837;28;20048;-80
2023/06/09 14:15:36;;;;;;;0.10;0.00;;;;;;;;;;5073056;28;20040;-80
2023/06/09 14:18:02;;;;;;;0.00;0.00;;;;;;;;;;5071281;28;20083;-80
2023/06/09 14:20:28;;;;;;;0.00;0.00;;;;;;;;;;5071598;28;20471;-80
2023/06/09 14:22:56;;;;;;;0.00;0.00;;;;;;;;;;5072472;28;20550;-80
2023/06/09 14:25:22;;;;;;;0.00;0.00;;;;;;;;;;5071534;28;20076;-80
2023/06/09 14:27:49;;;;;;;0.00;0.00;;;;;;;;;;5072480;28;20551;-80
2023/06/09 14:30:17;;;;;;;0.00;0.00;;;;;;;;;;5072545;28;20396;-81
2023/06/09 14:32:46;;;;;;;0.00;0.00;;;;;;;;;;5071355;28;20438;-80
2023/06/09 14:35:14;;;;;;;0.00;0.00;;;;;;;;;;5071775;28;20058;-80
2023/06/09 14:37:40;;;;;;;0.00;0.00;;;;;;;;;;5072834;28;20040;-80
2023/06/09 14:40:08;;;;;;;0.00;0.00;;;;;;;;;;5072790;28;20044;-80
2023/06/09 14:42:34;;;;;;;0.00;0.00;;;;;;;;;;5071176;28;20052;-80
2023/06/09 14:45:00;;;;;;;0.00;0.00;;;;;;;;;;5071465;28;20082;-80